createdAt,value
2018-12-27T00:00:24.932Z,1028.72
2018-12-27T00:00:50.536Z,1028.71
2018-12-27T00:01:16.123Z,1028.74
2018-12-27T00:01:41.698Z,1028.72
2018-12-27T00:02:07.329Z,1028.71
2018-12-27T00:02:32.891Z,1028.73
2018-12-27T00:02:58.466Z,1028.72
2018-12-27T00:03:24.034Z,1028.71
2018-12-27T00:03:49.604Z,1028.67
2018-12-27T00:04:15.187Z,1028.64
2018-12-27T00:04:40.767Z,1028.65
2018-12-27T00:05:06.337Z,1028.64
2018-12-27T00:05:31.988Z,1028.57
2018-12-27T00:05:57.481Z,1028.56
2018-12-27T00:06:23.071Z,1028.58
2018-12-27T00:06:48.641Z,1028.56
2018-12-27T00:07:14.215Z,1028.6
2018-12-27T00:07:39.799Z,1028.55
2018-12-27T00:08:05.708Z,1028.56
2018-12-27T00:08:30.964Z,1028.6
2018-12-27T00:08:56.558Z,1028.58
2018-12-27T00:09:22.190Z,1028.56
2018-12-27T00:09:47.775Z,1028.58
2018-12-27T00:10:13.339Z,1028.58
2018-12-27T00:10:38.924Z,1028.54
2018-12-27T00:11:04.499Z,1028.52
2018-12-27T00:11:30.086Z,1028.54
2018-12-27T00:11:55.657Z,1028.53
2018-12-27T00:12:21.233Z,1028.52
2018-12-27T00:12:46.869Z,1028.5
2018-12-27T00:13:12.440Z,1028.53
2018-12-27T00:13:37.997Z,1028.52
2018-12-27T00:14:03.570Z,1028.5
2018-12-27T00:14:29.131Z,1028.53
2018-12-27T00:14:54.713Z,1028.47
2018-12-27T00:15:20.287Z,1028.44
2018-12-27T00:15:45.847Z,1028.45
2018-12-27T00:16:11.419Z,1028.46
2018-12-27T00:16:37.001Z,1028.47
2018-12-27T00:17:02.565Z,1028.43
2018-12-27T00:17:28.173Z,1028.42
2018-12-27T00:17:53.761Z,1028.44
2018-12-27T00:18:19.351Z,1028.46
2018-12-27T00:18:44.961Z,1028.46
2018-12-27T00:19:10.491Z,1028.4
2018-12-27T00:19:36.071Z,1028.46
2018-12-27T00:20:01.617Z,1028.38
2018-12-27T00:20:27.212Z,1028.43
2018-12-27T00:20:52.789Z,1028.45
2018-12-27T00:21:18.373Z,1028.44
2018-12-27T00:21:43.959Z,1028.41
2018-12-27T00:22:09.549Z,1028.44
2018-12-27T00:22:35.108Z,1028.43
2018-12-27T00:23:00.677Z,1028.46
2018-12-27T00:23:26.245Z,1028.42
2018-12-27T00:23:51.837Z,1028.4
2018-12-27T00:24:17.417Z,1028.43
2018-12-27T00:24:42.982Z,1028.41
2018-12-27T00:25:08.551Z,1028.44
2018-12-27T00:25:34.139Z,1028.37
2018-12-27T00:25:59.697Z,1028.45
2018-12-27T00:26:25.278Z,1028.41
2018-12-27T00:26:50.852Z,1028.36
2018-12-27T00:27:16.442Z,1028.39
2018-12-27T00:27:42.007Z,1028.38
2018-12-27T00:28:07.593Z,1028.4
2018-12-27T00:28:33.171Z,1028.37
2018-12-27T00:28:58.735Z,1028.33
2018-12-27T00:29:24.309Z,1028.35
2018-12-27T00:29:49.879Z,1028.36
2018-12-27T00:30:15.454Z,1028.36
2018-12-27T00:30:41.026Z,1028.35
2018-12-27T00:31:06.619Z,1028.32
2018-12-27T00:31:32.183Z,1028.32
2018-12-27T00:31:57.763Z,1028.33
2018-12-27T00:32:23.365Z,1028.35
2018-12-27T00:32:48.956Z,1028.32
2018-12-27T00:33:14.545Z,1028.32
2018-12-27T00:33:40.141Z,1028.35
2018-12-27T00:34:05.716Z,1028.32
2018-12-27T00:34:31.295Z,1028.3
2018-12-27T00:34:56.853Z,1028.31
2018-12-27T00:35:22.427Z,1028.32
2018-12-27T00:35:47.983Z,1028.32
2018-12-27T00:36:13.573Z,1028.3
2018-12-27T00:36:39.151Z,1028.31
2018-12-27T00:37:04.731Z,1028.34
2018-12-27T00:37:30.309Z,1028.3
2018-12-27T00:37:55.891Z,1028.32
2018-12-27T00:38:21.455Z,1028.3
2018-12-27T00:38:47.078Z,1028.28
2018-12-27T00:39:12.653Z,1028.26
2018-12-27T00:39:38.247Z,1028.29
2018-12-27T00:40:03.810Z,1028.25
2018-12-27T00:40:29.401Z,1028.26
2018-12-27T00:40:54.963Z,1028.25
2018-12-27T00:41:20.553Z,1028.25
2018-12-27T00:41:46.113Z,1028.22
2018-12-27T00:42:11.673Z,1028.25
2018-12-27T00:42:37.239Z,1028.26
2018-12-27T00:43:02.827Z,1028.21
2018-12-27T00:43:28.409Z,1028.27
2018-12-27T00:43:53.979Z,1028.26
2018-12-27T00:44:19.561Z,1028.29
2018-12-27T00:44:45.130Z,1028.28
2018-12-27T00:45:10.701Z,1028.3
2018-12-27T00:45:36.285Z,1028.29
2018-12-27T00:46:01.875Z,1028.26
2018-12-27T00:46:27.446Z,1028.27
2018-12-27T00:46:53.013Z,1028.28
2018-12-27T00:47:18.594Z,1028.27
2018-12-27T00:47:44.150Z,1028.23
2018-12-27T00:48:09.724Z,1028.23
2018-12-27T00:48:35.299Z,1028.27
2018-12-27T00:49:00.877Z,1028.26
2018-12-27T00:49:26.435Z,1028.22
2018-12-27T00:49:51.999Z,1028.27
2018-12-27T00:50:17.569Z,1028.25
2018-12-27T00:50:43.157Z,1028.27
2018-12-27T00:51:08.717Z,1028.23
2018-12-27T00:51:34.293Z,1028.26
2018-12-27T00:51:59.871Z,1028.26
2018-12-27T00:52:25.432Z,1028.25
2018-12-27T00:52:51.007Z,1028.27
2018-12-27T00:53:16.560Z,1028.28
2018-12-27T00:53:42.150Z,1028.25
2018-12-27T00:54:07.721Z,1028.21
2018-12-27T00:54:33.315Z,1028.25
2018-12-27T00:54:58.914Z,1028.22
2018-12-27T00:55:24.485Z,1028.24
2018-12-27T00:55:50.051Z,1028.26
2018-12-27T00:56:15.640Z,1028.26
2018-12-27T00:56:41.218Z,1028.21
2018-12-27T00:57:06.783Z,1028.23
2018-12-27T00:57:32.363Z,1028.26
2018-12-27T00:57:57.940Z,1028.17
2018-12-27T00:58:23.521Z,1028.25
2018-12-27T00:58:49.125Z,1028.19
2018-12-27T00:59:14.675Z,1028.2
2018-12-27T00:59:40.247Z,1028.21
2018-12-27T01:00:05.816Z,1028.19
2018-12-27T01:00:31.447Z,1028.17
2018-12-27T01:00:56.996Z,1028.22
2018-12-27T01:01:22.589Z,1028.18
2018-12-27T01:01:48.154Z,1028.16
2018-12-27T01:02:13.733Z,1028.17
2018-12-27T01:02:39.329Z,1028.15
2018-12-27T01:03:10.975Z,1028.19
2018-12-27T01:03:30.471Z,1028.1
2018-12-27T01:03:56.039Z,1028.15
2018-12-27T01:04:21.615Z,1028.13
2018-12-27T01:04:47.213Z,1028.12
2018-12-27T01:05:12.785Z,1028.14
2018-12-27T01:05:38.345Z,1028.11
2018-12-27T01:06:03.916Z,1028.14
2018-12-27T01:06:29.470Z,1028.11
2018-12-27T01:06:55.031Z,1028.11
2018-12-27T01:07:20.615Z,1028.1
2018-12-27T01:07:46.179Z,1028.13
2018-12-27T01:08:11.753Z,1028.13
2018-12-27T01:08:37.325Z,1028.13
2018-12-27T01:09:02.895Z,1028.1
2018-12-27T01:09:28.461Z,1028.09
2018-12-27T01:09:54.041Z,1028.11
2018-12-27T01:10:19.625Z,1028.11
2018-12-27T01:10:45.195Z,1028.12
2018-12-27T01:11:10.755Z,1028.08
2018-12-27T01:11:36.340Z,1028.12
2018-12-27T01:12:01.919Z,1028.11
2018-12-27T01:12:27.479Z,1028.11
2018-12-27T01:12:53.046Z,1028.11
2018-12-27T01:13:18.628Z,1028.08
2018-12-27T01:13:44.205Z,1028.07
2018-12-27T01:14:09.774Z,1028.06
2018-12-27T01:14:35.353Z,1028.06
2018-12-27T01:15:00.938Z,1028.08
2018-12-27T01:15:26.509Z,1028.06
2018-12-27T01:15:52.075Z,1028.07
2018-12-27T01:16:17.643Z,1028.08
2018-12-27T01:16:43.253Z,1028.07
2018-12-27T01:17:08.827Z,1028.06
2018-12-27T01:17:34.403Z,1028.06
2018-12-27T01:17:59.978Z,1028.05
2018-12-27T01:18:25.559Z,1028.06
2018-12-27T01:18:51.135Z,1028.06
2018-12-27T01:19:16.712Z,1028.04
2018-12-27T01:19:42.307Z,1028.02
2018-12-27T01:20:07.872Z,1028.02
2018-12-27T01:20:33.439Z,1028.03
2018-12-27T01:20:59.031Z,1028.06
2018-12-27T01:21:24.605Z,1028.07
2018-12-27T01:21:50.170Z,1028.04
2018-12-27T01:22:15.746Z,1028.06
2018-12-27T01:22:41.326Z,1028.06
2018-12-27T01:23:06.890Z,1028.05
2018-12-27T01:23:32.446Z,1028.06
2018-12-27T01:23:58.018Z,1028.09
2018-12-27T01:24:23.616Z,1028.11
2018-12-27T01:24:49.151Z,1028.11
2018-12-27T01:25:14.725Z,1028.09
2018-12-27T01:25:40.292Z,1028.1
2018-12-27T01:26:05.855Z,1028.07
2018-12-27T01:26:31.435Z,1028.13
2018-12-27T01:26:56.999Z,1028.1
2018-12-27T01:27:22.572Z,1028.1
2018-12-27T01:27:48.126Z,1028.15
2018-12-27T01:28:13.699Z,1028.12
2018-12-27T01:28:39.276Z,1028.1
2018-12-27T01:29:04.866Z,1028.07
2018-12-27T01:29:30.437Z,1028.03
2018-12-27T01:29:56.022Z,1028.08
2018-12-27T01:30:21.582Z,1028.03
2018-12-27T01:30:47.168Z,1028.05
2018-12-27T01:31:12.728Z,1028.08
2018-12-27T01:31:38.318Z,1028.08
2018-12-27T01:32:03.890Z,1028.09
2018-12-27T01:32:29.472Z,1028.07
2018-12-27T01:32:55.054Z,1028.08
2018-12-27T01:33:20.616Z,1028.08
2018-12-27T01:33:46.176Z,1028.08
2018-12-27T01:34:11.725Z,1028.08
2018-12-27T01:34:37.336Z,1028.09
2018-12-27T01:35:02.927Z,1028.11
2018-12-27T01:35:28.503Z,1028.08
2018-12-27T01:35:54.126Z,1028.1
2018-12-27T01:36:19.709Z,1028.04
2018-12-27T01:36:45.269Z,1028.03
2018-12-27T01:37:10.866Z,1028.04
2018-12-27T01:37:36.422Z,1028.07
2018-12-27T01:38:02.000Z,1028.04
2018-12-27T01:38:27.572Z,1028.08
2018-12-27T01:38:53.142Z,1028.08
2018-12-27T01:39:18.704Z,1028.05
2018-12-27T01:39:44.277Z,1028.04
2018-12-27T01:40:09.838Z,1028.03
2018-12-27T01:40:35.388Z,1028.02
2018-12-27T01:41:00.966Z,1028.04
2018-12-27T01:41:26.540Z,1028.05
2018-12-27T01:41:52.114Z,1028
2018-12-27T01:42:17.680Z,1028.02
2018-12-27T01:42:43.269Z,1028.04
2018-12-27T01:43:08.811Z,1027.99
2018-12-27T01:43:34.398Z,1028.01
2018-12-27T01:43:59.986Z,1027.96
2018-12-27T01:44:25.520Z,1027.99
2018-12-27T01:44:51.090Z,1028
2018-12-27T01:45:16.636Z,1027.98
2018-12-27T01:45:42.208Z,1027.98
2018-12-27T01:46:07.783Z,1027.97
2018-12-27T01:46:33.342Z,1027.98
2018-12-27T01:46:58.950Z,1027.98
2018-12-27T01:47:24.490Z,1028
2018-12-27T01:47:50.082Z,1027.99
2018-12-27T01:48:15.668Z,1027.98
2018-12-27T01:48:41.253Z,1027.95
2018-12-27T01:49:06.842Z,1027.99
2018-12-27T01:49:32.433Z,1027.97
2018-12-27T01:49:58.002Z,1027.96
2018-12-27T01:50:23.576Z,1027.93
2018-12-27T01:50:49.134Z,1027.99
2018-12-27T01:51:14.702Z,1027.95
2018-12-27T01:51:40.252Z,1027.94
2018-12-27T01:52:05.852Z,1027.98
2018-12-27T01:52:31.426Z,1027.91
2018-12-27T01:52:57.026Z,1027.91
2018-12-27T01:53:22.610Z,1027.91
2018-12-27T01:53:48.164Z,1027.89
2018-12-27T01:54:13.720Z,1027.91
2018-12-27T01:54:39.281Z,1027.92
2018-12-27T01:55:04.850Z,1027.93
2018-12-27T01:55:30.426Z,1027.91
2018-12-27T01:55:55.991Z,1027.87
2018-12-27T01:56:21.576Z,1027.89
2018-12-27T01:56:47.138Z,1027.88
2018-12-27T01:57:12.709Z,1027.83
2018-12-27T01:57:38.307Z,1027.9
2018-12-27T01:58:03.874Z,1027.89
2018-12-27T01:58:29.438Z,1027.88
2018-12-27T01:58:55.000Z,1027.89
2018-12-27T01:59:20.584Z,1027.9
2018-12-27T01:59:46.250Z,1027.9
2018-12-27T02:00:11.828Z,1027.91
2018-12-27T02:00:37.396Z,1027.9
2018-12-27T02:01:02.976Z,1027.88
2018-12-27T02:01:28.564Z,1027.88
2018-12-27T02:01:54.140Z,1027.88
2018-12-27T02:02:19.712Z,1027.88
2018-12-27T02:02:45.296Z,1027.85
2018-12-27T02:03:10.852Z,1027.83
2018-12-27T02:03:36.444Z,1027.81
2018-12-27T02:04:01.996Z,1027.85
2018-12-27T02:04:27.568Z,1027.83
2018-12-27T02:04:53.148Z,1027.79
2018-12-27T02:05:18.694Z,1027.82
2018-12-27T02:05:44.261Z,1027.83
2018-12-27T02:06:09.858Z,1027.81
2018-12-27T02:06:35.434Z,1027.77
2018-12-27T02:07:01.001Z,1027.75
2018-12-27T02:07:26.569Z,1027.75
2018-12-27T02:07:52.183Z,1027.73
2018-12-27T02:08:17.754Z,1027.78
2018-12-27T02:08:43.344Z,1027.75
2018-12-27T02:09:08.912Z,1027.79
2018-12-27T02:09:34.490Z,1027.78
2018-12-27T02:10:00.077Z,1027.79
2018-12-27T02:10:25.626Z,1027.77
2018-12-27T02:10:51.202Z,1027.72
2018-12-27T02:11:16.787Z,1027.68
2018-12-27T02:11:42.359Z,1027.72
2018-12-27T02:12:07.930Z,1027.72
2018-12-27T02:12:33.590Z,1027.71
2018-12-27T02:12:59.170Z,1027.73
2018-12-27T02:13:24.777Z,1027.72
2018-12-27T02:13:50.320Z,1027.73
2018-12-27T02:14:15.890Z,1027.7
2018-12-27T02:14:41.468Z,1027.75
2018-12-27T02:15:07.036Z,1027.74
2018-12-27T02:15:32.606Z,1027.78
2018-12-27T02:15:58.168Z,1027.75
2018-12-27T02:16:23.728Z,1027.73
2018-12-27T02:16:49.295Z,1027.74
2018-12-27T02:17:14.876Z,1027.78
2018-12-27T02:17:40.451Z,1027.75
2018-12-27T02:18:06.028Z,1027.79
2018-12-27T02:18:31.599Z,1027.75
2018-12-27T02:18:57.190Z,1027.77
2018-12-27T02:19:22.754Z,1027.77
2018-12-27T02:19:48.298Z,1027.75
2018-12-27T02:20:13.870Z,1027.74
2018-12-27T02:20:39.430Z,1027.75
2018-12-27T02:21:05.000Z,1027.76
2018-12-27T02:21:30.587Z,1027.71
2018-12-27T02:21:56.154Z,1027.77
2018-12-27T02:22:21.726Z,1027.74
2018-12-27T02:22:47.283Z,1027.76
2018-12-27T02:23:12.846Z,1027.74
2018-12-27T02:23:38.412Z,1027.77
2018-12-27T02:24:03.979Z,1027.74
2018-12-27T02:24:29.546Z,1027.71
2018-12-27T02:24:55.128Z,1027.73
2018-12-27T02:25:20.710Z,1027.73
2018-12-27T02:25:46.275Z,1027.7
2018-12-27T02:26:11.886Z,1027.71
2018-12-27T02:26:37.448Z,1027.7
2018-12-27T02:27:03.035Z,1027.72
2018-12-27T02:27:28.620Z,1027.67
2018-12-27T02:27:54.187Z,1027.67
2018-12-27T02:28:19.746Z,1027.67
2018-12-27T02:28:45.329Z,1027.68
2018-12-27T02:29:10.885Z,1027.67
2018-12-27T02:29:36.435Z,1027.66
2018-12-27T02:30:02.004Z,1027.7
2018-12-27T02:30:27.591Z,1027.66
2018-12-27T02:30:53.138Z,1027.62
2018-12-27T02:31:18.733Z,1027.67
2018-12-27T02:31:44.290Z,1027.62
2018-12-27T02:32:09.840Z,1027.62
2018-12-27T02:32:35.407Z,1027.66
2018-12-27T02:33:01.006Z,1027.63
2018-12-27T02:33:35.025Z,1027.67
2018-12-27T02:33:52.148Z,1027.62
2018-12-27T02:34:17.728Z,1027.65
2018-12-27T02:34:43.315Z,1027.63
2018-12-27T02:35:08.893Z,1027.65
2018-12-27T02:35:34.462Z,1027.65
2018-12-27T02:36:00.038Z,1027.64
2018-12-27T02:36:25.608Z,1027.67
2018-12-27T02:36:51.173Z,1027.65
2018-12-27T02:37:16.753Z,1027.68
2018-12-27T02:37:42.331Z,1027.69
2018-12-27T02:38:07.912Z,1027.68
2018-12-27T02:38:33.489Z,1027.69
2018-12-27T02:38:59.057Z,1027.67
2018-12-27T02:39:24.616Z,1027.68
2018-12-27T02:39:50.179Z,1027.69
2018-12-27T02:40:15.750Z,1027.7
2018-12-27T02:40:41.300Z,1027.66
2018-12-27T02:41:06.919Z,1027.67
2018-12-27T02:41:32.478Z,1027.66
2018-12-27T02:41:58.058Z,1027.64
2018-12-27T02:42:23.612Z,1027.64
2018-12-27T02:42:49.179Z,1027.63
2018-12-27T02:43:14.751Z,1027.61
2018-12-27T02:43:40.305Z,1027.6
2018-12-27T02:44:05.866Z,1027.63
2018-12-27T02:44:31.435Z,1027.62
2018-12-27T02:44:57.032Z,1027.63
2018-12-27T02:45:22.620Z,1027.61
2018-12-27T02:45:48.195Z,1027.59
2018-12-27T02:46:13.779Z,1027.57
2018-12-27T02:46:39.349Z,1027.58
2018-12-27T02:47:04.940Z,1027.61
2018-12-27T02:47:30.506Z,1027.6
2018-12-27T02:47:56.088Z,1027.6
2018-12-27T02:48:21.651Z,1027.57
2018-12-27T02:48:47.220Z,1027.58
2018-12-27T02:49:12.791Z,1027.56
2018-12-27T02:49:38.349Z,1027.57
2018-12-27T02:50:03.979Z,1027.56
2018-12-27T02:50:29.556Z,1027.56
2018-12-27T02:50:55.124Z,1027.52
2018-12-27T02:51:20.692Z,1027.55
2018-12-27T02:51:46.264Z,1027.55
2018-12-27T02:52:11.877Z,1027.58
2018-12-27T02:52:37.447Z,1027.6
2018-12-27T02:53:03.007Z,1027.6
2018-12-27T02:53:28.590Z,1027.56
2018-12-27T02:53:54.159Z,1027.56
2018-12-27T02:54:19.719Z,1027.56
2018-12-27T02:54:45.297Z,1027.56
2018-12-27T02:55:10.850Z,1027.54
2018-12-27T02:55:36.454Z,1027.58
2018-12-27T02:56:02.021Z,1027.54
2018-12-27T02:56:27.621Z,1027.58
2018-12-27T02:56:53.199Z,1027.58
2018-12-27T02:57:18.787Z,1027.56
2018-12-27T02:57:44.341Z,1027.57
2018-12-27T02:58:09.911Z,1027.54
2018-12-27T02:58:35.480Z,1027.54
2018-12-27T02:59:01.038Z,1027.51
2018-12-27T02:59:26.627Z,1027.48
2018-12-27T02:59:52.202Z,1027.5
2018-12-27T03:00:17.738Z,1027.54
2018-12-27T03:00:43.301Z,1027.55
2018-12-27T03:01:08.875Z,1027.52
2018-12-27T03:01:34.444Z,1027.53
2018-12-27T03:02:00.020Z,1027.52
2018-12-27T03:02:25.599Z,1027.5
2018-12-27T03:02:51.187Z,1027.51
2018-12-27T03:03:16.760Z,1027.5
2018-12-27T03:03:43.917Z,1027.49
2018-12-27T03:04:07.915Z,1027.51
2018-12-27T03:04:33.479Z,1027.48
2018-12-27T03:04:59.038Z,1027.5
2018-12-27T03:05:24.605Z,1027.49
2018-12-27T03:05:50.194Z,1027.47
2018-12-27T03:06:15.758Z,1027.5
2018-12-27T03:06:41.306Z,1027.5
2018-12-27T03:07:06.878Z,1027.47
2018-12-27T03:07:32.468Z,1027.49
2018-12-27T03:07:58.040Z,1027.48
2018-12-27T03:08:23.618Z,1027.49
2018-12-27T03:08:49.199Z,1027.46
2018-12-27T03:09:14.772Z,1027.43
2018-12-27T03:09:40.344Z,1027.45
2018-12-27T03:10:05.928Z,1027.43
2018-12-27T03:10:31.479Z,1027.45
2018-12-27T03:10:57.041Z,1027.48
2018-12-27T03:11:22.617Z,1027.43
2018-12-27T03:11:48.186Z,1027.44
2018-12-27T03:12:13.742Z,1027.41
2018-12-27T03:12:39.307Z,1027.41
2018-12-27T03:13:04.881Z,1027.4
2018-12-27T03:13:30.435Z,1027.42
2018-12-27T03:13:56.020Z,1027.4
2018-12-27T03:14:21.594Z,1027.45
2018-12-27T03:14:47.162Z,1027.42
2018-12-27T03:15:12.718Z,1027.42
2018-12-27T03:15:38.298Z,1027.42
2018-12-27T03:16:03.869Z,1027.4
2018-12-27T03:16:29.423Z,1027.4
2018-12-27T03:16:55.002Z,1027.37
2018-12-27T03:17:20.600Z,1027.38
2018-12-27T03:17:46.119Z,1027.38
2018-12-27T03:18:11.758Z,1027.36
2018-12-27T03:18:37.326Z,1027.37
2018-12-27T03:19:02.920Z,1027.37
2018-12-27T03:19:28.503Z,1027.39
2018-12-27T03:19:54.055Z,1027.38
2018-12-27T03:20:19.619Z,1027.38
2018-12-27T03:20:45.204Z,1027.36
2018-12-27T03:21:10.767Z,1027.36
2018-12-27T03:21:36.312Z,1027.37
2018-12-27T03:22:01.894Z,1027.42
2018-12-27T03:22:27.454Z,1027.36
2018-12-27T03:22:53.010Z,1027.32
2018-12-27T03:23:18.592Z,1027.35
2018-12-27T03:23:44.160Z,1027.34
2018-12-27T03:24:09.718Z,1027.34
2018-12-27T03:24:35.271Z,1027.35
2018-12-27T03:25:00.828Z,1027.35
2018-12-27T03:25:26.499Z,1027.33
2018-12-27T03:25:52.064Z,1027.34
2018-12-27T03:26:17.612Z,1027.32
2018-12-27T03:26:43.178Z,1027.3
2018-12-27T03:27:08.772Z,1027.31
2018-12-27T03:27:34.347Z,1027.4
2018-12-27T03:27:59.902Z,1027.39
2018-12-27T03:28:25.482Z,1027.37
2018-12-27T03:28:51.028Z,1027.32
2018-12-27T03:29:16.596Z,1027.35
2018-12-27T03:29:42.166Z,1027.36
2018-12-27T03:30:07.765Z,1027.36
2018-12-27T03:30:33.331Z,1027.37
2018-12-27T03:30:58.892Z,1027.36
2018-12-27T03:31:24.491Z,1027.35
2018-12-27T03:31:50.099Z,1027.33
2018-12-27T03:32:15.686Z,1027.34
2018-12-27T03:32:41.226Z,1027.31
2018-12-27T03:33:06.954Z,1027.37
2018-12-27T03:33:32.360Z,1027.3
2018-12-27T03:33:57.955Z,1027.3
2018-12-27T03:34:23.534Z,1027.26
2018-12-27T03:34:49.100Z,1027.27
2018-12-27T03:35:14.655Z,1027.31
2018-12-27T03:35:40.234Z,1027.3
2018-12-27T03:36:05.810Z,1027.29
2018-12-27T03:36:31.371Z,1027.27
2018-12-27T03:36:56.962Z,1027.27
2018-12-27T03:37:22.532Z,1027.26
2018-12-27T03:37:48.112Z,1027.31
2018-12-27T03:38:13.688Z,1027.23
2018-12-27T03:38:39.246Z,1027.26
2018-12-27T03:39:04.793Z,1027.28
2018-12-27T03:39:30.378Z,1027.28
2018-12-27T03:39:55.930Z,1027.25
2018-12-27T03:40:21.493Z,1027.22
2018-12-27T03:40:47.050Z,1027.28
2018-12-27T03:41:12.626Z,1027.27
2018-12-27T03:41:38.198Z,1027.26
2018-12-27T03:42:03.762Z,1027.27
2018-12-27T03:42:29.339Z,1027.26
2018-12-27T03:42:54.928Z,1027.24
2018-12-27T03:43:20.536Z,1027.22
2018-12-27T03:43:46.106Z,1027.28
2018-12-27T03:44:11.662Z,1027.26
2018-12-27T03:44:37.247Z,1027.25
2018-12-27T03:45:02.852Z,1027.25
2018-12-27T03:45:28.434Z,1027.24
2018-12-27T03:45:54.022Z,1027.27
2018-12-27T03:46:19.592Z,1027.19
2018-12-27T03:46:45.161Z,1027.24
2018-12-27T03:47:10.733Z,1027.26
2018-12-27T03:47:36.325Z,1027.25
2018-12-27T03:48:01.899Z,1027.24
2018-12-27T03:48:27.492Z,1027.25
2018-12-27T03:48:53.058Z,1027.26
2018-12-27T03:49:18.628Z,1027.2
2018-12-27T03:49:44.173Z,1027.24
2018-12-27T03:50:09.736Z,1027.24
2018-12-27T03:50:35.303Z,1027.26
2018-12-27T03:51:00.868Z,1027.18
2018-12-27T03:51:26.435Z,1027.22
2018-12-27T03:51:52.040Z,1027.18
2018-12-27T03:52:17.604Z,1027.23
2018-12-27T03:52:43.207Z,1027.22
2018-12-27T03:53:08.772Z,1027.22
2018-12-27T03:53:34.342Z,1027.19
2018-12-27T03:53:59.952Z,1027.21
2018-12-27T03:54:25.492Z,1027.22
2018-12-27T03:54:51.049Z,1027.16
2018-12-27T03:55:16.615Z,1027.21
2018-12-27T03:55:42.179Z,1027.22
2018-12-27T03:56:07.751Z,1027.22
2018-12-27T03:56:33.309Z,1027.19
2018-12-27T03:56:58.879Z,1027.17
2018-12-27T03:57:24.457Z,1027.14
2018-12-27T03:57:50.032Z,1027.13
2018-12-27T03:58:15.603Z,1027.14
2018-12-27T03:58:41.198Z,1027.15
2018-12-27T03:59:06.746Z,1027.19
2018-12-27T03:59:32.330Z,1027.14
2018-12-27T03:59:57.899Z,1027.18
2018-12-27T04:00:23.465Z,1027.15
2018-12-27T04:00:49.082Z,1027.13
2018-12-27T04:01:14.663Z,1027.16
2018-12-27T04:01:40.238Z,1027.17
2018-12-27T04:02:05.834Z,1027.15
2018-12-27T04:02:31.398Z,1027.18
2018-12-27T04:02:56.967Z,1027.12
2018-12-27T04:03:22.550Z,1027.15
2018-12-27T04:03:48.118Z,1027.18
2018-12-27T04:04:13.696Z,1027.16
2018-12-27T04:04:39.269Z,1027.15
2018-12-27T04:05:04.826Z,1027.22
2018-12-27T04:05:30.451Z,1027.17
2018-12-27T04:05:55.998Z,1027.17
2018-12-27T04:06:21.572Z,1027.17
2018-12-27T04:06:47.143Z,1027.2
2018-12-27T04:07:12.750Z,1027.14
2018-12-27T04:07:38.322Z,1027.19
2018-12-27T04:08:03.885Z,1027.14
2018-12-27T04:08:29.444Z,1027.15
2018-12-27T04:08:55.034Z,1027.16
2018-12-27T04:09:20.605Z,1027.19
2018-12-27T04:09:46.174Z,1027.19
2018-12-27T04:10:11.724Z,1027.18
2018-12-27T04:10:37.288Z,1027.15
2018-12-27T04:11:02.849Z,1027.13
2018-12-27T04:11:28.412Z,1027.14
2018-12-27T04:11:53.971Z,1027.17
2018-12-27T04:12:19.555Z,1027.18
2018-12-27T04:12:45.142Z,1027.16
2018-12-27T04:13:10.714Z,1027.21
2018-12-27T04:13:36.281Z,1027.19
2018-12-27T04:14:01.864Z,1027.17
2018-12-27T04:14:27.435Z,1027.18
2018-12-27T04:14:52.997Z,1027.15
2018-12-27T04:15:18.574Z,1027.16
2018-12-27T04:15:44.141Z,1027.13
2018-12-27T04:16:09.720Z,1027.14
2018-12-27T04:16:35.269Z,1027.16
2018-12-27T04:17:00.838Z,1027.13
2018-12-27T04:17:26.395Z,1027.09
2018-12-27T04:17:51.960Z,1027.13
2018-12-27T04:18:17.539Z,1027.11
2018-12-27T04:18:43.096Z,1027.11
2018-12-27T04:19:08.664Z,1027.08
2018-12-27T04:19:34.251Z,1027.11
2018-12-27T04:19:59.809Z,1027.08
2018-12-27T04:20:25.382Z,1027.04
2018-12-27T04:20:50.957Z,1027.06
2018-12-27T04:21:16.542Z,1027.06
2018-12-27T04:21:42.100Z,1027.07
2018-12-27T04:22:07.669Z,1027.12
2018-12-27T04:22:33.236Z,1027.07
2018-12-27T04:22:58.815Z,1027.09
2018-12-27T04:23:24.383Z,1027.06
2018-12-27T04:23:49.932Z,1027.1
2018-12-27T04:24:15.517Z,1027.09
2018-12-27T04:24:41.124Z,1027.09
2018-12-27T04:25:06.699Z,1027.07
2018-12-27T04:25:32.269Z,1027.09
2018-12-27T04:25:57.820Z,1027.04
2018-12-27T04:26:23.386Z,1027.02
2018-12-27T04:26:48.979Z,1027.01
2018-12-27T04:27:14.540Z,1027.04
2018-12-27T04:27:40.139Z,1027
2018-12-27T04:28:05.719Z,1027.03
2018-12-27T04:28:31.267Z,1027.03
2018-12-27T04:28:56.849Z,1027.02
2018-12-27T04:29:22.426Z,1027.03
2018-12-27T04:29:48.005Z,1027.02
2018-12-27T04:30:13.569Z,1027.01
2018-12-27T04:30:39.168Z,1027.03
2018-12-27T04:31:04.766Z,1026.99
2018-12-27T04:31:30.347Z,1027.02
2018-12-27T04:31:55.913Z,1027
2018-12-27T04:32:21.498Z,1026.99
2018-12-27T04:32:47.085Z,1027.01
2018-12-27T04:33:12.640Z,1027.03
2018-12-27T04:33:38.208Z,1026.98
2018-12-27T04:34:09.420Z,1027.01
2018-12-27T04:34:29.349Z,1026.99
2018-12-27T04:34:54.928Z,1027.02
2018-12-27T04:35:20.513Z,1027.01
2018-12-27T04:35:46.076Z,1027.02
2018-12-27T04:36:11.629Z,1026.98
2018-12-27T04:36:37.205Z,1026.97
2018-12-27T04:37:02.780Z,1027.02
2018-12-27T04:37:28.342Z,1027
2018-12-27T04:37:53.924Z,1026.98
2018-12-27T04:38:19.498Z,1026.97
2018-12-27T04:38:45.048Z,1027.01
2018-12-27T04:39:10.611Z,1027.01
2018-12-27T04:39:36.182Z,1026.98
2018-12-27T04:40:01.763Z,1027
2018-12-27T04:40:27.339Z,1026.97
2018-12-27T04:40:52.927Z,1026.99
2018-12-27T04:41:18.496Z,1027.01
2018-12-27T04:41:44.048Z,1027
2018-12-27T04:42:09.629Z,1027
2018-12-27T04:42:35.283Z,1026.98
2018-12-27T04:43:00.757Z,1026.99
2018-12-27T04:43:26.341Z,1026.99
2018-12-27T04:43:51.924Z,1026.98
2018-12-27T04:44:17.504Z,1027.02
2018-12-27T04:44:43.070Z,1026.99
2018-12-27T04:45:08.669Z,1026.97
2018-12-27T04:45:34.218Z,1026.98
2018-12-27T04:45:59.799Z,1026.99
2018-12-27T04:46:25.398Z,1027.01
2018-12-27T04:46:50.952Z,1027.02
2018-12-27T04:47:16.520Z,1027
2018-12-27T04:47:42.111Z,1027
2018-12-27T04:48:07.681Z,1026.99
2018-12-27T04:48:33.283Z,1026.97
2018-12-27T04:48:58.850Z,1026.99
2018-12-27T04:49:24.426Z,1026.96
2018-12-27T04:49:50.004Z,1026.96
2018-12-27T04:50:15.574Z,1026.98
2018-12-27T04:50:41.161Z,1026.97
2018-12-27T04:51:06.720Z,1026.96
2018-12-27T04:51:32.288Z,1026.98
2018-12-27T04:51:57.839Z,1026.95
2018-12-27T04:52:23.398Z,1026.93
2018-12-27T04:52:48.964Z,1026.94
2018-12-27T04:53:14.538Z,1026.94
2018-12-27T04:53:40.115Z,1026.91
2018-12-27T04:54:05.670Z,1026.94
2018-12-27T04:54:31.240Z,1026.91
2018-12-27T04:54:56.805Z,1026.95
2018-12-27T04:55:22.396Z,1026.91
2018-12-27T04:55:47.949Z,1026.9
2018-12-27T04:56:13.511Z,1026.9
2018-12-27T04:56:39.088Z,1026.89
2018-12-27T04:57:04.643Z,1026.9
2018-12-27T04:57:30.231Z,1026.88
2018-12-27T04:57:55.828Z,1026.88
2018-12-27T04:58:21.396Z,1026.89
2018-12-27T04:58:46.982Z,1026.89
2018-12-27T04:59:12.551Z,1026.88
2018-12-27T04:59:38.128Z,1026.9
2018-12-27T05:00:03.689Z,1026.88
2018-12-27T05:00:29.263Z,1026.9
2018-12-27T05:00:54.829Z,1026.94
2018-12-27T05:01:20.405Z,1026.92
2018-12-27T05:01:45.975Z,1026.91
2018-12-27T05:02:11.531Z,1026.9
2018-12-27T05:02:37.082Z,1026.9
2018-12-27T05:03:02.688Z,1026.91
2018-12-27T05:03:28.251Z,1026.91
2018-12-27T05:03:53.840Z,1026.88
2018-12-27T05:04:19.378Z,1026.86
2018-12-27T05:04:44.954Z,1026.86
2018-12-27T05:05:10.549Z,1026.89
2018-12-27T05:05:36.135Z,1026.87
2018-12-27T05:06:01.701Z,1026.88
2018-12-27T05:06:27.271Z,1026.86
2018-12-27T05:06:52.845Z,1026.89
2018-12-27T05:07:18.423Z,1026.87
2018-12-27T05:07:43.998Z,1026.87
2018-12-27T05:08:09.589Z,1026.86
2018-12-27T05:08:35.161Z,1026.87
2018-12-27T05:09:00.741Z,1026.87
2018-12-27T05:09:26.299Z,1026.84
2018-12-27T05:09:51.873Z,1026.86
2018-12-27T05:10:17.441Z,1026.88
2018-12-27T05:10:43.050Z,1026.89